EW2927 Weather Reports


Display with metric or nautical units.
time (UTC)temp
F
wind
direction
speed
MPH
gust
MPH
rain 1hr
in
rain 24hr
in
rain mn
in
humidity
%
barometer
mb
20181215191125 54 198 3.0 7.0 0.00 0.04 0.00 73 1014.9
20181215190130 55 181 2.0 5.0 0.00 0.04 0.00 71 1014.8
20181215185125 54 218 2.0 5.0 0.00 0.04 0.00 73 1014.9
20181215184125 54 198 3.0 7.0 0.00 0.04 0.00 74 1014.8
20181215183130 54 199 3.0 8.0 0.00 0.04 0.00 74 1014.7
20181215182124 54 177 3.0 9.0 0.00 0.04 0.00 74 1014.7
20181215181124 54 187 4.0 9.0 0.00 0.04 0.00 75 1014.8
20181215180129 54 174 2.0 6.0 0.00 0.04 0.00 73 1014.9
20181215175124 54 173 3.0 9.0 0.00 0.04 0.00 75 1015.0
20181215174123 54 192 3.0 9.0 0.00 0.04 0.00 74 1015.2
20181215173127 54 200 2.0 6.0 0.00 0.04 0.00 74 1015.3
20181215172123 54 207 3.0 9.0 0.00 0.04 0.00 74 1015.3
20181215171123 54 175 4.0 8.0 0.00 0.04 0.00 74 1015.4
20181215170128 54 178 4.0 10.0 0.00 0.05 0.00 74 1015.4
20181215165122 54 184 4.0 10.0 0.00 0.11 0.00 74 1015.3
20181215164121 54 191 6.0 12.0 0.00 0.11 0.00 73 1015.4
20181215163126 54 169 3.0 8.0 0.00 0.11 0.00 68 1015.4
20181215162121 54 195 3.0 9.0 0.00 0.12 0.00 71 1015.5
20181215161120 54 214 3.0 10.0 0.00 0.12 0.00 70 1015.5
20181215160125 54 205 4.0 12.0 0.00 0.12 0.00 70 1015.6
20181215155120 53 196 4.0 12.0 0.00 0.12 0.00 70 1015.6
20181215154120 53 195 4.0 11.0 0.00 0.12 0.00 67 1015.6
20181215153125 54 192 4.0 12.0 0.00 0.12 0.00 63 1015.5
20181215152120 54 193 3.0 9.0 0.00 0.12 0.00 52 1015.3
20181215151119 53 209 3.0 7.0 0.00 0.12 0.00 50 1015.2
20181215150124 52 204 3.0 8.0 0.00 0.12 0.00 43 1015.3
20181215145118 52 200 3.0 8.0 0.00 0.12 0.00 37 1015.3
20181215144119 52 204 2.0 7.0 0.00 0.12 0.00 34 1015.2
20181215143123 52 197 3.0 9.0 0.00 0.12 0.00 34 1015.1
20181215142118 51 170 3.0 9.0 0.00 0.12 0.00 32 1014.9
20181215141117 51 202 2.0 7.0 0.00 0.12 0.00 29 1014.8
20181215140122 51 160 3.0 8.0 0.00 0.12 0.00 30 1014.7
20181215135116 51 187 3.0 8.0 0.00 0.12 0.00 28 1014.5
20181215134117 51 183 3.0 10.0 0.00 0.12 0.00 10 1014.4
20181215133121 50 185 2.0 8.0 0.00 0.12 0.00 8 1014.3
20181215132116 50 173 2.0 8.0 0.00 0.12 0.00 4 1014.1
20181215131116 49 154 3.0 6.0 0.00 0.12 0.00 1 1014.2
20181215130121 49 144 2.0 5.0 0.00 0.12 0.00 2 1014.0
20181215125116 49 138 2.0 5.0 0.00 0.12 0.00 3 1013.8
20181215124115 48 141 2.0 5.0 0.00 0.12 0.00 4 1013.8
20181215123119 48 140 2.0 3.0 0.00 0.13 0.00 9 1013.6
20181215122116 48 137 1.0 4.0 0.00 0.13 0.00 13 1013.7
20181215121114 48 139 2.0 3.0 0.00 0.13 0.00 13 1013.7
20181215120119 48 144 1.0 2.0 0.00 0.13 0.00 15 1013.6
20181215115114 49 170 1.0 3.0 0.00 0.13 0.00 12 1013.7
20181215114113 49 155 2.0 9.0 0.00 0.13 0.00 9 1013.6
20181215113118 50 162 1.0 3.0 0.00 0.13 0.00 4 1013.5
20181215112113 50 144 2.0 4.0 0.00 0.13 0.00 1 1013.4
20181215111113 50 140 2.0 4.0 0.00 0.13 0.00 1 1013.3
20181215110117 50 151 2.0 4.0 0.00 0.13 0.00 1 1013.1
20181215105112 50 147 2.0 5.0 0.00 0.13 0.00 1 1012.9
20181215104112 50 148 1.0 3.0 0.00 0.13 0.00 1 1012.7
20181215103116 50 125 2.0 5.0 0.00 0.13 0.00 1 1012.5
20181215102112 50 158 2.0 5.0 0.00 0.13 0.00 1 1012.5
20181215101110 50 190 1.0 3.0 0.00 0.14 0.00 1 1012.6
20181215100115 50 144 1.0 3.0 0.00 0.14 0.00 1 1012.6
20181215095110 50 151 1.0 2.0 0.00 0.14 0.00 1 1012.5
20181215094110 50 148 1.0 4.0 0.00 0.14 0.00 1 1012.5
20181215093115 50 121 2.0 3.0 0.00 0.16 0.00 1 1012.4
20181215092109 49 150 1.0 3.0 0.00 0.17 0.00 1 1012.4
20181215091109 49 155 1.0 3.0 0.00 0.17 0.00 1 1012.5
20181215090115 49 166 1.0 3.0 0.00 0.17 0.00 1 1012.8
20181215085109 49 165 1.0 3.0 0.00 0.17 0.00 1 1012.7
20181215084109 48 151 0.0 3.0 0.00 0.18 0.00 1 1012.6
20181215083113 49 202 1.0 3.0 0.00 0.18 0.00 1 1012.5
20181215082108 49 170 1.0 4.0 0.00 0.18 0.00 1 1012.3
20181215081108 49 165 1.0 3.0 0.00 0.18 0.00 1 1012.3
20181215080112 49 179 1.0 3.0 0.00 0.19 0.00 1 1012.3
20181215075107 50 158 1.0 7.0 0.00 0.19 0.00 1 1012.4
20181215074107 49 186 1.0 4.0 0.00 0.19 0.00 1 1012.3
20181215073112 49 210 0.0 2.0 0.00 0.19 0.00 1 1012.3
20181215072107 50 210 0.0 2.0 0.00 0.19 0.00 1 1012.1
20181215071106 50 151 1.0 3.0 0.00 0.19 0.00 1 1012.1
20181215070111 50 159 1.0 3.0 0.00 0.20 0.00 1 1012.1
20181215065105 50 186 1.0 3.0 0.00 0.20 0.00 1 1012.2
20181215064106 50 188 1.0 3.0 0.00 0.21 0.00 1 1012.2
20181215063110 51 188 1.0 4.0 0.00 0.21 0.00 1 1012.0
20181215062105 51 187 1.0 4.0 0.00 0.22 0.00 1 1012.0
20181215061104 51 177 1.0 2.0 0.00 0.24 0.00 1 1012.0
20181215060121 51 177 1.0 2.0 0.00 0.28 0.00 1 1012.0
20181215055103 51 145 1.0 3.0 0.00 0.32 0.29 1 1012.0
20181215054103 51 130 1.0 2.0 0.00 0.35 0.29 1 1012.1
20181215053108 50 130 1.0 3.0 0.00 0.39 0.29 1 1012.1
20181215052103 50 130 1.0 2.0 0.00 0.45 0.29 1 1011.9
20181215051103 51 130 1.0 2.0 0.00 0.50 0.29 1 1012.1
20181215050107 51 130 0.0 1.0 0.00 0.53 0.29 2 1012.2
20181215045102 51 130 1.0 2.0 0.00 0.54 0.29 4 1012.1
20181215044102 51 130 1.0 2.0 0.00 0.56 0.29 7 1012.2
20181215043106 52 130 1.0 3.0 0.00 0.58 0.29 9 1012.3
20181215042101 52 130 2.0 3.0 0.00 0.58 0.29 14 1012.4
20181215041101 52 150 1.0 3.0 0.00 0.59 0.29 18 1012.4
20181215040106 52 154 1.0 2.0 0.00 0.60 0.29 25 1012.4
20181215035100 53 154 0.0 2.0 0.00 0.61 0.29 32 1012.1
20181215034100 54 154 1.0 2.0 0.00 0.62 0.29 32 1012.4
20181215033104 54 152 1.0 3.0 0.00 0.62 0.29 36 1012.4
20181215032100 54 150 1.0 5.0 0.00 0.63 0.29 37 1012.6
20181215031100 54 179 1.0 7.0 0.00 0.64 0.29 42 1012.5
20181215030105 55 189 1.0 3.0 0.00 0.64 0.29 48 1012.3
20181215025100 55 177 2.0 5.0 0.00 0.65 0.29 49 1012.2
20181215024059 55 193 2.0 6.0 0.00 0.67 0.29 46 1012.3
20181215023103 56 190 2.0 7.0 0.00 0.68 0.29 43 1012.3
20181215022058 56 163 1.0 2.0 0.00 0.69 0.29 41 1012.3
20181215021058 56 163 1.0 3.0 0.00 0.69 0.29 45 1012.2
20181215020103 57 164 1.0 4.0 0.00 0.70 0.29 50 1012.0
20181215015058 57 162 1.0 4.0 0.00 0.70 0.29 49 1011.9
20181215014057 57 146 1.0 4.0 0.00 0.70 0.29 48 1012.0
20181215013102 58 184 2.0 5.0 0.00 0.70 0.29 50 1011.8
20181215012057 58 189 2.0 7.0 0.00 0.71 0.29 47 1011.5
20181215011056 58 198 2.0 5.0 0.00 0.71 0.29 44 1011.6
20181215010100 59 166 2.0 4.0 0.00 0.71 0.29 43 1011.4
20181215005056 59 196 2.0 4.0 0.00 0.71 0.29 40 1011.6
20181215004056 59 194 3.0 9.0 0.00 0.71 0.29 41 1011.0
20181215003100 60 177 2.0 8.0 0.00 0.71 0.29 37 1011.2
20181215002055 60 175 2.0 6.0 0.00 0.71 0.29 37 1011.1
20181215001054 60 175 2.0 7.0 0.00 0.71 0.29 44 1011.1
20181215000100 61 183 3.0 10.0 0.00 0.71 0.29 50 1010.9
20181214235054 61 181 3.0 9.0 0.00 0.71 0.29 55 1010.4
20181214234054 62 182 4.0 11.0 0.00 0.71 0.29 54 1010.7
20181214233059 63 181 6.0 14.0 0.00 0.71 0.29 26 1010.1
20181214232054 65 181 4.0 13.0 0.00 0.71 0.29 1 1009.1
20181214231054 66 153 4.0 10.0 0.00 0.71 0.29 1 1009.0
20181214230058 66 168 2.0 5.0 0.00 0.71 0.29 1 1009.2
20181214225052 66 164 3.0 9.0 0.00 0.71 0.29 1 1009.2
20181214224053 66 161 2.0 4.0 0.00 0.71 0.29 1 1008.6
20181214223057 66 167 2.0 9.0 0.00 0.71 0.29 1 1008.7
20181214222052 66 152 3.0 8.0 0.00 0.71 0.29 1 1008.2
20181214221051 66 103 3.0 8.0 0.00 0.71 0.29 1 1008.6
20181214220057 66 132 3.0 10.0 0.00 0.71 0.29 1 1008.9
20181214215051 66 99 4.0 13.0 0.00 0.71 0.29 1 1008.6
20181214214051 66 139 3.0 8.0 0.01 0.71 0.29 1 1009.0
20181214213055 66 103 3.0 6.0 0.01 0.71 0.29 1 1008.5
20181214212050 66 80 3.0 7.0 0.02 0.71 0.29 1 1008.2
20181214211049 66 118 2.0 8.0 0.03 0.71 0.29 1 1009.1
20181214210055 66 169 2.0 4.0 0.04 0.71 0.29 1 1009.6
20181214205049 66 153 1.0 2.0 0.04 0.71 0.29 1 1009.5
20181214204049 66 209 1.0 3.0 0.03 0.70 0.28 1 1009.4
20181214203053 66 135 1.0 2.0 0.02 0.69 0.27 1 1009.4
20181214202049 66 131 2.0 3.0 0.02 0.69 0.27 1 1009.3
20181214201049 66 145 2.0 4.0 0.01 0.68 0.26 1 1009.4
20181214200054 66 121 2.0 4.0 0.00 0.67 0.25 1 1008.9
20181214195049 66 131 2.0 5.0 0.00 0.67 0.25 1 1008.8
20181214194047 66 136 3.0 8.0 0.00 0.67 0.25 1 1009.0
20181214193053 66 122 3.0 9.0 0.00 0.67 0.25 1 1009.2
20181214192047 66 108 3.0 8.0 0.00 0.67 0.25 1 1009.0